METAR AND TAF INFORMATION
METAR FOR LEAM
ADDS - METARS form results

(2254 UTC 04 August 2021)
Data provider http://aviationweather.gov/metar/data/
 
METAR text: LEAM 042230Z AUTO 24005KT CAVOK 23/21 Q1014
Conditions at: LEAM (ALMERIA AIRPORT , ES) observed 2230 UTC 04 August 2021
Temperature: 23.0°C (73°F)
Dewpoint: 21.0°C (70°F) [RH = 89%]
Pressure (altimeter): 29.94 inches Hg (1014.0 mb)
Winds: from the WSW (240 degrees) at 6 MPH (5 knots; 2.6 m/s)
Visibility: 6 or more miles (10+ km)
Ceiling: ceiling and visibility are OK
Clouds: unknown
Weather: no significant weather observed at this time

METAR text: LEAM 042200Z AUTO 25006KT CAVOK 23/21 Q1014
Conditions at: LEAM (ALMERIA AIRPORT , ES) observed 2200 UTC 04 August 2021
Temperature: 23.0°C (73°F)
Dewpoint: 21.0°C (70°F) [RH = 89%]
Pressure (altimeter): 29.94 inches Hg (1014.0 mb)
Winds: from the WSW (250 degrees) at 7 MPH (6 knots; 3.1 m/s)
Visibility: 6 or more miles (10+ km)
Ceiling: ceiling and visibility are OK
Clouds: unknown
Weather: no significant weather observed at this time

Forecast for: LEAM (ALMERIA AIRPORT , ES)
Text: TAF LEAM 041700Z 0418/0518 20010KT CAVOK TX29/0513Z TN21/0504Z
Forecast period: 1800 to 2100 UTC 04 August 2021
Forecast type: FROM: standard forecast or significant change
Winds: from the SSW (200 degrees) at 12 MPH (10 knots; 5.1 m/s)
Visibility: 6 or more miles (10+ km)
Ceiling: unknown
Clouds: missing
Weather: no significant weather forecast for this period
Text: BECMG 0421/0423 VRB02KT
Forecast period: 2100 UTC 04 August 2021 to 0800 UTC 05 August 2021
Forecast type: BECOMING: Conditions expected to become as follows by 2300 UTC 04 August 2021
Winds: variable direction winds at 2 MPH (2 knots; 1.0 m/s)
Visibility: 6 or more miles (10+ km)
Ceiling: unknown
Clouds: missing
Weather: no significant weather forecast for this period
Text: BECMG 0508/0510 21010KT
Forecast period: 0800 to 1800 UTC 05 August 2021
Forecast type: BECOMING: Conditions expected to become as follows by 1000 UTC 05 August 2021
Winds: from the SSW (210 degrees) at 12 MPH (10 knots; 5.1 m/s)
Visibility: 6 or more miles (10+ km)
Ceiling: unknown
Clouds: missing
Weather: no significant weather forecast for this period

 AIRPORT MAP

 RUNWAY INFORMATION
Runway 08 Runway length 10499 ft Runway width 148 ft
Runway elevation 26 ft Runway displaced threshold 492 ft Runway heading 73
Runway 26 Runway length 10499 ft Runway width 148 ft
Runway elevation 70 ft Runway displaced threshold 0 ft Runway heading 253

 AIRPORT FREQUENCIES
Type APP Name APP Frequency 118.35 MHZ
Type GND Name GND Frequency 121.7 MHZ
Type TWR Name TWR Frequency 118.35 MHZ

 AIRPORT NEAR NAVIGATION AIDS
Type NDB Name Almeria Frequency 284 KHZ
Type NDB Name Almeria Frequency 310 KHZ
Type VOR-DME Name Almeria Frequency 114100 KHZ





Powered by Virtual Airlines Manager

Maps by Rafael Santos